Montford Hills, NC

7:26 PM EST on January 22, 2018 (GMT -0500)
Montford Hills | | Change Station
Active Advisory: Wind Advisory

Elev 2122 ft 35.60 °N, 82.57 °W | Updated 6 seconds ago

Overcast
Overcast
48.0 °F
Feels Like 48 °F
N
0.0
Wind Variable Wind from East
Gusts 1.3 mph

Today
High -- | Low -- °F
--% Chance of Precip.
Yesterday
High -- | Low -- °F
Precip. -- in
Pressure 30.01 in
Visibility 3.0 miles
Clouds Scattered Clouds 500 ft
Overcast 1100 ft
Windchill 48 °F
Dew Point 47 °F
Humidity 95%
Rainfall 0.02 in
Snow Depth Not available.
7:36 AM 5:47 PM
Waxing Crescent, 30% visible
METAR KAVL 222354Z 22003KT 3SM RA BR SCT005 OVC011 09/08 A3001 RMK AO2 SLP161 P0008 60023 T00890078 10144 20089 55006
Pressure 30.01 in
Visibility 3.0 miles
Clouds Scattered Clouds 500 ft
Overcast 1100 ft
Windchill 48 °F
Dew Point 47 °F
Humidity 95%
Rainfall 0.02 in
Snow Depth Not available.
7:36 AM 5:47 PM
Waxing Crescent, 30% visible
METAR KAVL 222354Z 22003KT 3SM RA BR SCT005 OVC011 09/08 A3001 RMK AO2 SLP161 P0008 60023 T00890078 10144 20089 55006

Get Your Daily Forecast Email!

Thanks for signing up!

Be on the lookout for a verification email in your inbox.

You'll start receiving severe weather alerts in your inbox..

×

10-Day Weather Forecast

Almanac

Astronomy

Jan. 22, 2018 Rise Set
Actual Time
Civil Twilight
Nautical Twilight
Astronomical Twilight
Moon
Length of Visible Light
Length of Day
Tomorrow will be .
, % of the Moon is Illuminated

Today's Extremes

State Highs State Lows

Community

WunderPhotos

Category 6

Welcome to Category 6. This is the collective home for Weather Underground's featured writeups by Dr. Jeff Masters (right), Bob Henson (left), Chris Burt, and other regular contributors.

Nearby

Air Quality

  Air Quality AQ Index Pollutant
Not available.

Snow Depth

Station Depth Elevation

Earthquake Activity

City Distance Mag. Time & Date
Minimum magnitude displayed is 2.5.

Coastal Water Temperatures

Place Temperature

Stations

Nearby Weather Stations

Station Location Temp. Windchill Dew Point Humidity Wind Precip. Elev Updated Type
                   

Watches & Warnings

Wind Advisory
Issued: 2:55 PM EST Jan. 22, 2018 – National Weather Service

... Wind Advisory now in effect until 6 am EST Tuesday above
3500 feet...

* locations... the higher elevations of the western North
Carolina mountains.

* Hazards... strong wind gusts.

* Timing... through tonight.

* Winds... south 20 to 30 mph with gusts up to 55 mph.

* Impacts... strong winds may blow down limbs, trees, and power
lines. Scattered power outages are expected.

Precautionary/preparedness actions...

A Wind Advisory means that winds of 35 mph are expected. Winds
this strong can make driving difficult... especially for high
profile vehicles. Use extra caution.

Stay tuned to NOAA Weather Radio or your favorite source of
weather information for the latest updates. Additional details
can be found at www.Weather.Gov/gsp.



Ark